Flight Track Log - Related Links

Times and Time Zones

All times are in EDT time to prevent confusion due to time zone crossing. See the UPS1121 flight status page for this flight to view local times or setup timezone preferences in your user account.

Time Position Orientation Groundspeed Altitude Reporting Facility
EDT Latitude Longitude Course Direction KTS MPH feet Rate Location/Type
Thu 09:53:46 PM 41.9375 -72.6942 228° Southwest 130 150 1,000  Level Boston Center
Thu 09:54:17 PM 41.9228 -72.7164 228° Southwest 156 180 2,300 2,850 Climbing Boston Center
Thu 09:55:06 PM 41.8831 -72.7383 202° Southwest 204 235 4,800 2,602 Climbing Boston Center
Thu 10:00:49 PM 41.4200 -72.3710 202° Southwest 412 474 19,300 2,381 Climbing FlightAware ADS-B
Thu 10:01:29 PM 41.3410 -72.3540 171° South 409 471 20,000 525 Climbing FlightAware ADS-B
Thu 10:02:09 PM 41.2700 -72.3620 185° South 391 450 20,000  Level FlightAware ADS-B
Thu 10:02:51 PM 41.2180 -72.4080 214° Southwest 393 452 20,000  Level FlightAware ADS-B
Thu 10:03:35 PM 41.1380 -72.4870 217° Southwest 437 503 20,000  Level FlightAware ADS-B
Thu 10:04:22 PM 41.0658 -72.5773 223° Southwest 445 512 20,000  Level FlightAware ADS-B
Thu 10:05:00 PM 41.0101 -72.6475 224° Southwest 444 511 20,000  Level FlightAware ADS-B
Thu 10:05:33 PM 40.9592 -72.7090 222° Southwest 445 512 20,000  Level FlightAware ADS-B
Thu 10:06:02 PM 40.9129 -72.7545 217° Southwest 443 510 20,000  Level FlightAware ADS-B
Thu 10:06:32 PM 40.8601 -72.7970 211° Southwest 443 510 20,000  Level FlightAware ADS-B
Thu 10:07:02 PM 40.8064 -72.8385 210° Southwest 443 510 20,000  Level FlightAware ADS-B
Thu 10:07:40 PM 40.7380 -72.8922 211° Southwest 444 511 20,000  Level FlightAware ADS-B
Thu 10:08:10 PM 40.6869 -72.9326 211° Southwest 446 513 20,000  Level FlightAware ADS-B
Thu 10:08:41 PM 40.6320 -72.9758 211° Southwest 447 514 20,000  Level FlightAware ADS-B
Thu 10:09:11 PM 40.5780 -73.0182 211° Southwest 447 514 20,000  Level FlightAware ADS-B
Thu 10:09:41 PM 40.5249 -73.0599 211° Southwest 446 513 20,000  Level FlightAware ADS-B
Thu 10:10:11 PM 40.4718 -73.1014 211° Southwest 446 513 20,000  Level FlightAware ADS-B
Thu 10:10:42 PM 40.4170 -73.1443 211° Southwest 446 513 20,000  Level FlightAware ADS-B
Thu 10:11:23 PM 40.3457 -73.1999 211° Southwest 447 514 20,000  Level FlightAware ADS-B
Thu 10:11:59 PM 40.2815 -73.2498 211° Southwest 447 514 20,000  Level FlightAware ADS-B
Thu 10:12:31 PM 40.2246 -73.2938 211° Southwest 447 514 20,000  Level FlightAware ADS-B
Thu 10:13:01 PM 40.1703 -73.3358 211° Southwest 447 514 20,000  Level FlightAware ADS-B
Thu 10:13:34 PM 40.1120 -73.3807 211° Southwest 446 513 20,000  Level FlightAware ADS-B
Thu 10:14:05 PM 40.0572 -73.4229 211° Southwest 447 514 20,000  Level FlightAware ADS-B
Thu 10:14:36 PM 40.0017 -73.4657 211° Southwest 447 514 20,000  Level FlightAware ADS-B
Thu 10:14:51 PM 39.9769 -73.4877 214° Southwest 445 512 20,000  Level FlightAware ADS-B
Thu 10:15:09 PM 39.9473 -73.5192 219° Southwest 444 511 20,000  Level FlightAware ADS-B
Thu 10:15:39 PM 39.9047 -73.5773 226° Southwest 442 509 20,000  Level FlightAware ADS-B
Thu 10:16:12 PM 39.8614 -73.6414 229° Southwest 441 507 20,000  Level FlightAware ADS-B
Thu 10:16:42 PM 39.8203 -73.7022 229° Southwest 440 506 20,000  Level FlightAware ADS-B
Thu 10:17:12 PM 39.7797 -73.7620 229° Southwest 439 505 20,000 -95 Level FlightAware ADS-B
Thu 10:17:45 PM 39.7355 -73.8272 229° Southwest 439 505 19,900 -844 Descending FlightAware ADS-B
Thu 10:18:16 PM 39.6943 -73.8877 229° Southwest 443 510 19,100 -1,905 Descending FlightAware ADS-B
Thu 10:18:48 PM 39.6518 -73.9500 228° Southwest 424 488 17,900 -2,516 Descending FlightAware ADS-B
Thu 10:19:18 PM 39.6134 -74.0061 228° Southwest 409 471 16,500 -2,857 Descending FlightAware ADS-B
Thu 10:19:51 PM 39.5730 -74.0653 228° Southwest 402 463 14,900 -2,880 Descending FlightAware ADS-B
Thu 10:20:08 PM 39.5524 -74.0958 229° Southwest 396 456 14,100 -2,000 Descending FlightAware ADS-B
Thu 10:20:21 PM 39.5395 -74.1212 237° Southwest 399 459 13,900 -947 Descending FlightAware ADS-B
Thu 10:20:27 PM 39.5341 -74.1364 245° Southwest 402 463 13,800 -545 Descending FlightAware ADS-B
Thu 10:20:32 PM 39.5310 -74.1477 250° West 401 461 13,800 -400 Level FlightAware ADS-B
Thu 10:20:42 PM 39.5272 -74.1692 257° West 400 460 13,700 -240 Descending FlightAware ADS-B
Thu 10:20:57 PM 39.5257 -74.2043 267° West 397 457 13,700 -667 Level FlightAware ADS-B
Thu 10:21:27 PM 39.5268 -74.2762 271° West 390 449 13,200 -2,095 Descending FlightAware ADS-B
Thu 10:22:00 PM 39.5285 -74.3542 272° West 386 444 11,500 -2,719 Descending FlightAware ADS-B
Thu 10:22:31 PM 39.5298 -74.4230 271° West 370 426 10,300 -1,200 Descending FlightAware ADS-B
Thu 10:23:05 PM 39.5310 -74.4950 271° West 331 381 10,200 -182 Descending FlightAware ADS-B
Thu 10:23:37 PM 39.5319 -74.5541 271° West 296 341 10,100 -360 Descending FlightAware ADS-B
Thu 10:23:55 PM 39.5325 -74.5851 271° West 281 323 9,900 -1,091 Descending FlightAware ADS-B
Thu 10:24:10 PM 39.5331 -74.6104 272° West 279 321 9,500 -1,455 Descending FlightAware ADS-B
Thu 10:24:28 PM 39.5337 -74.6394 272° West 279 321 9,100 -1,455 Descending FlightAware ADS-B
Thu 10:24:43 PM 39.5341 -74.6652 271° West 280 322 8,700 -800 Descending FlightAware ADS-B
Thu 10:24:58 PM 39.5344 -74.6908 271° West 282 325 8,700  Level FlightAware ADS-B
Thu 10:25:12 PM 39.5349 -74.7135 272° West 283 326 8,700  Level FlightAware ADS-B
Thu 10:25:27 PM 39.5357 -74.7395 272° West 281 323 8,700  Level FlightAware ADS-B
Thu 10:25:43 PM 39.5363 -74.7664 272° West 280 322 8,700  Level FlightAware ADS-B
Thu 10:25:58 PM 39.5366 -74.7911 271° West 281 323 8,700  Level FlightAware ADS-B
Thu 10:26:13 PM 39.5367 -74.8172 270° West 280 322 8,700  Level FlightAware ADS-B
Thu 10:26:28 PM 39.5368 -74.8430 270° West 281 323 8,700  Level FlightAware ADS-B
Thu 10:26:44 PM 39.5369 -74.8691 270° West 281 323 8,700  Level FlightAware ADS-B
Thu 10:26:59 PM 39.5369 -74.8948 270° West 281 323 8,700  Level FlightAware ADS-B
Thu 10:27:15 PM 39.5372 -74.9226 271° West 281 323 8,700  Level FlightAware ADS-B
Thu 10:27:32 PM 39.5396 -74.9508 276° West 282 325 8,700  Level FlightAware ADS-B
Thu 10:27:45 PM 39.5470 -74.9706 296° West 282 325 8,700  Level FlightAware ADS-B
Thu 10:27:49 PM 39.5504 -74.9759 310° West 283 326 8,700  Level FlightAware ADS-B
Thu 10:27:54 PM 39.5549 -74.9816 316° Northwest 283 326 8,700  Level FlightAware ADS-B
Thu 10:28:04 PM 39.5659 -74.9919 324° Northwest 285 328 8,700  Level FlightAware ADS-B
Thu 10:28:19 PM 39.5828 -75.0063 327° Northwest 285 328 8,700 -615 Level FlightAware ADS-B
Thu 10:28:43 PM 39.6100 -75.0287 328° Northwest 277 319 8,300 -1,231 Descending FlightAware ADS-B
Thu 10:28:58 PM 39.6265 -75.0425 327° Northwest 276 318 7,900 -1,355 Descending FlightAware ADS-B
Thu 10:29:14 PM 39.6422 -75.0559 327° Northwest 276 318 7,600 -1,429 Descending FlightAware ADS-B
Thu 10:29:19 PM 39.6486 -75.0610 328° Northwest 276 318 7,400 -1,347 Descending FlightAware ADS-B
Thu 10:30:03 PM 39.7033 -75.0758 348° North 278 320 6,500 -1,220 Descending FlightAware ADS-B
Thu 10:30:18 PM 39.7221 -75.0779 355° North 268 308 6,200 -1,742 Descending FlightAware ADS-B
Thu 10:30:34 PM 39.7418 -75.0796 356° North 260 299 5,600 -2,100 Descending FlightAware ADS-B
Thu 10:30:38 PM 39.7463 -75.0791 North 258 297 5,500 -2,182 Descending FlightAware ADS-B
Thu 10:30:45 PM 39.7537 -75.0767 14° North 257 296 5,200 -2,250 Descending FlightAware ADS-B
Thu 10:30:54 PM 39.7639 -75.0696 28° Northeast 255 293 4,900 -2,538 Descending FlightAware ADS-B
Thu 10:31:11 PM 39.7770 -75.0507 48° Northeast 255 293 4,100 -2,750 Descending FlightAware ADS-B
Thu 10:31:18 PM 39.7829 -75.0427 46° Northeast 258 297 3,800 -2,500 Descending FlightAware ADS-B
Thu 10:31:23 PM 39.7871 -75.0385 38° Northeast 259 298 3,600 -2,250 Descending FlightAware ADS-B
Thu 10:31:26 PM 39.7904 -75.0360 30° Northeast 258 297 3,500 -2,250 Descending FlightAware ADS-B
Thu 10:31:31 PM 39.7959 -75.0329 23° Northeast 257 296 3,300 -2,000 Descending FlightAware ADS-B
Thu 10:31:35 PM 39.8009 -75.0309 17° North 255 293 3,200 -1,600 Descending FlightAware ADS-B
Thu 10:31:46 PM 39.8135 -75.0296 North 246 283 2,900 -1,579 Descending FlightAware ADS-B
Thu 10:31:54 PM 39.8229 -75.0307 355° North 239 275 2,700 -500 Descending FlightAware ADS-B
Thu 10:32:10 PM 39.8388 -75.0333 353° North 219 252 2,700 -383 Level FlightAware ADS-B
Thu 10:32:41 PM 39.8671 -75.0419 347° North 194 223 2,400 -667 Descending FlightAware ADS-B
Thu 10:32:55 PM 39.8770 -75.0499 328° Northwest 177 204 2,200 -1,143 Descending FlightAware ADS-B
Thu 10:33:02 PM 39.8815 -75.0549 320° Northwest 173 199 2,000 -1,091 Descending FlightAware ADS-B
Thu 10:33:06 PM 39.8835 -75.0575 315° West 170 196 2,000 -750 Level FlightAware ADS-B
Thu 10:33:10 PM 39.8859 -75.0609 313° West 168 193 1,900 -1,500 Descending FlightAware ADS-B
Thu 10:33:14 PM 39.8874 -75.0638 304° West 169 194 1,800 -750 Descending FlightAware ADS-B
Thu 10:33:18 PM 39.8888 -75.0674 297° West 167 192 1,800  Level FlightAware ADS-B
Thu 10:33:24 PM 39.8903 -75.0733 288° West 166 191 1,800  Level FlightAware ADS-B
Thu 10:33:27 PM 39.8908 -75.0762 283° West 165 190 1,800  Level FlightAware ADS-B
Thu 10:33:33 PM 39.8915 -75.0817 279° West 163 188 1,800 429 Level FlightAware ADS-B
Thu 10:33:41 PM 39.8920 -75.0898 275° West 161 185 1,900  Climbing FlightAware ADS-B
Thu 10:33:50 PM 39.8922 -75.0980 272° West 156 180 1,800 -667 Descending FlightAware ADS-B

Login

Don't have an account? Register now (free) for customized features, flight alerts, and more!